Time;durP1;ratioP1;P1;durP2;ratioP2;P2;SDS_P1;SDS_P2;PMS_P1;PMS_P2;Temp;Humidity;BMP_temperature;BMP_pressure;BME280_temperature;BME280_humidity;BME280_pressure;Samples;Min_cycle;Max_cycle;Signal;HPM_P1;HPM_P2
2023/06/12 00:00:56;;;;;;;10.07;9.18;;;15.80;99.90;;;;;;5107520;29;20027;-72
2023/06/12 00:03:27;;;;;;;8.68;7.70;;;15.60;99.90;;;;;;5107501;29;20035;-72
2023/06/12 00:05:59;;;;;;;9.32;8.50;;;15.50;99.90;;;;;;5107502;29;20106;-72
2023/06/12 00:08:33;;;;;;;9.82;8.68;;;15.70;99.90;;;;;;5107593;29;20020;-72
2023/06/12 00:11:07;;;;;;;8.90;8.15;;;15.80;99.90;;;;;;5107373;29;20043;-72
2023/06/12 00:13:40;;;;;;;8.93;8.13;;;15.80;99.90;;;;;;5107360;29;20039;-72
2023/06/12 00:16:11;;;;;;;8.77;8.07;;;15.90;99.90;;;;;;5107266;29;20032;-72
2023/06/12 00:18:42;;;;;;;9.57;8.57;;;15.70;99.90;;;;;;5107022;29;20072;-72
2023/06/12 00:21:13;;;;;;;9.88;8.63;;;15.80;99.90;;;;;;5107259;29;20059;-72
2023/06/12 00:23:43;;;;;;;9.50;8.50;;;15.70;99.90;;;;;;5107202;29;20110;-72
2023/06/12 00:26:14;;;;;;;9.77;8.88;;;15.90;99.90;;;;;;5107168;29;20032;-72
2023/06/12 00:28:46;;;;;;;9.50;8.70;;;15.70;99.90;;;;;;5107052;29;20103;-73
2023/06/12 00:31:17;;;;;;;8.82;8.05;;;15.60;99.90;;;;;;5107040;29;20086;-73
2023/06/12 00:33:48;;;;;;;11.50;8.07;;;15.60;99.90;;;;;;5107033;29;20426;-72
2023/06/12 00:36:19;;;;;;;8.73;7.90;;;15.70;99.90;;;;;;5106954;29;20023;-72
2023/06/12 00:38:51;;;;;;;9.13;8.43;;;15.60;99.90;;;;;;5106808;29;20034;-71
2023/06/12 00:41:23;;;;;;;9.50;8.65;;;15.60;99.90;;;;;;5106935;29;20143;-73
2023/06/12 00:43:53;;;;;;;9.25;8.45;;;15.60;99.90;;;;;;5106749;29;20480;-73
2023/06/12 00:46:24;;;;;;;8.75;7.95;;;15.50;99.90;;;;;;5106722;29;20030;-72
2023/06/12 00:48:56;;;;;;;9.52;8.73;;;15.50;99.90;;;;;;5106470;29;20038;-72
2023/06/12 00:51:28;;;;;;;8.90;7.85;;;15.50;99.90;;;;;;5106581;29;20060;-72
2023/06/12 00:54:00;;;;;;;8.20;7.47;;;15.30;99.90;;;;;;5106506;29;20023;-71
2023/06/12 00:56:31;;;;;;;9.55;8.38;;;15.20;99.90;;;;;;5106682;29;20037;-72
2023/06/12 00:59:02;;;;;;;8.88;8.07;;;15.40;99.90;;;;;;5106502;29;20416;-73
2023/06/12 01:01:33;;;;;;;9.68;8.77;;;15.30;99.90;;;;;;5106293;29;20031;-72
2023/06/12 01:04:04;;;;;;;10.13;9.23;;;15.30;99.90;;;;;;5106456;29;20032;-72
2023/06/12 01:06:59;;;;;;;10.63;9.07;;;15.40;99.90;;;;;;5105036;29;20059;-73
2023/06/12 01:09:43;;;;;;;8.18;7.38;;;15.60;99.90;;;;;;5106374;29;20383;-72
2023/06/12 01:12:15;;;;;;;9.60;8.75;;;15.70;99.90;;;;;;5106212;29;20114;-73
2023/06/12 01:14:52;;;;;;;8.95;8.10;;;15.30;99.90;;;;;;5106139;29;20032;-72
2023/06/12 01:17:23;;;;;;;10.25;9.30;;;15.30;99.90;;;;;;5105859;29;20035;-72
2023/06/12 01:19:57;;;;;;;10.07;9.18;;;15.30;99.90;;;;;;5104857;29;20032;-72
2023/06/12 01:22:30;;;;;;;10.60;9.70;;;15.30;99.90;;;;;;5106017;29;20024;-71
2023/06/12 01:25:13;;;;;;;11.10;10.13;;;15.30;99.90;;;;;;5106115;29;20785;-73
2023/06/12 01:28:17;;;;;;;9.45;8.73;;;15.30;99.90;;;;;;5106100;29;20583;-73
2023/06/12 01:31:06;;;;;;;12.32;9.32;;;15.30;99.90;;;;;;5102672;29;20052;-73
2023/06/12 01:33:40;;;;;;;10.73;9.68;;;15.30;99.90;;;;;;5104831;29;20506;-72
2023/06/12 01:36:15;;;;;;;9.95;9.15;;;15.10;99.90;;;;;;5106117;29;20038;-72
2023/06/12 01:38:50;;;;;;;10.50;9.50;;;15.40;99.90;;;;;;5106144;29;20645;-71
2023/06/12 01:41:23;;;;;;;10.02;9.07;;;15.20;99.90;;;;;;5105815;29;20106;-72
2023/06/12 01:43:54;;;;;;;10.63;9.55;;;15.40;99.90;;;;;;5105821;29;20032;-72
2023/06/12 01:46:25;;;;;;;10.23;9.45;;;15.20;99.90;;;;;;5105503;29;20487;-73
2023/06/12 01:48:56;;;;;;;10.07;9.18;;;15.20;99.90;;;;;;5105684;29;20063;-72
2023/06/12 01:51:27;;;;;;;9.38;8.52;;;15.10;99.90;;;;;;5104258;29;20106;-72
2023/06/12 01:53:58;;;;;;;9.95;8.98;;;15.10;99.90;;;;;;5105672;29;20107;-72
2023/06/12 01:56:29;;;;;;;8.52;7.72;;;15.10;99.90;;;;;;5105609;29;20042;-71
2023/06/12 01:58:59;;;;;;;11.77;9.50;;;15.30;99.90;;;;;;5105591;29;20027;-72
2023/06/12 02:01:31;;;;;;;11.55;9.55;;;14.90;99.90;;;;;;5105488;29;20086;-71
2023/06/12 02:04:02;;;;;;;10.77;9.43;;;14.80;99.90;;;;;;5105584;29;20028;-72
2023/06/12 02:06:33;;;;;;;9.93;8.80;;;15.00;99.90;;;;;;5105373;29;20034;-72
2023/06/12 02:09:04;;;;;;;11.20;10.10;;;15.00;99.90;;;;;;5105382;29;20371;-73
2023/06/12 02:11:35;;;;;;;11.13;10.02;;;14.80;99.90;;;;;;5105311;29;20114;-71
2023/06/12 02:14:06;;;;;;;9.38;8.57;;;15.00;99.90;;;;;;5105028;29;20047;-72
2023/06/12 02:16:37;;;;;;;9.98;9.00;;;15.10;99.90;;;;;;5105016;29;20043;-71
2023/06/12 02:19:07;;;;;;;9.20;8.50;;;15.10;99.90;;;;;;5103808;29;20135;-71
2023/06/12 02:21:38;;;;;;;9.50;8.63;;;14.90;99.90;;;;;;5105456;29;20038;-73
2023/06/12 02:24:09;;;;;;;8.80;7.97;;;15.10;99.90;;;;;;5105179;29;20031;-74
2023/06/12 02:26:40;;;;;;;8.82;7.88;;;15.10;99.90;;;;;;5105148;29;20469;-74
2023/06/12 02:29:14;;;;;;;9.80;9.00;;;15.00;99.90;;;;;;5105035;29;20499;-72
2023/06/12 02:31:45;;;;;;;13.07;9.65;;;15.10;99.90;;;;;;5105183;29;20043;-74
2023/06/12 02:34:16;;;;;;;10.18;9.27;;;15.00;99.90;;;;;;5105096;29;20027;-72
2023/06/12 02:36:47;;;;;;;10.40;9.02;;;15.10;99.90;;;;;;5105180;29;20377;-73
2023/06/12 02:39:18;;;;;;;9.90;9.10;;;15.10;99.90;;;;;;5105093;29;20444;-71
2023/06/12 02:41:49;;;;;;;9.73;8.85;;;15.20;99.90;;;;;;5104758;29;20067;-72
2023/06/12 02:44:20;;;;;;;9.90;9.07;;;15.10;99.90;;;;;;5105024;29;20106;-72
2023/06/12 02:46:53;;;;;;;10.73;9.73;;;15.20;99.90;;;;;;5105252;29;20123;-73
2023/06/12 02:49:28;;;;;;;16.10;9.98;;;15.30;99.90;;;;;;5103656;29;20035;-73
2023/06/12 02:51:59;;;;;;;13.13;9.95;;;15.20;99.90;;;;;;5104974;29;20111;-72
2023/06/12 02:54:30;;;;;;;17.48;9.68;;;15.20;99.90;;;;;;5105049;29;20107;-74
2023/06/12 02:57:01;;;;;;;13.38;9.60;;;15.30;99.90;;;;;;5105212;29;20047;-71
2023/06/12 02:59:31;;;;;;;16.33;10.15;;;15.20;99.90;;;;;;5105032;29;20039;-72
2023/06/12 03:02:02;;;;;;;14.48;10.95;;;15.10;99.90;;;;;;5111689;29;20114;-72
2023/06/12 03:04:33;;;;;;;19.17;11.05;;;15.20;99.90;;;;;;5124804;28;20031;-71
2023/06/12 03:07:05;;;;;;;14.25;11.18;;;15.30;99.90;;;;;;5124813;28;20035;-74
2023/06/12 03:09:36;;;;;;;19.13;12.25;;;15.20;99.90;;;;;;5124457;29;20085;-70
2023/06/12 03:12:07;;;;;;;15.93;11.40;;;15.10;99.90;;;;;;5124613;29;20059;-72
2023/06/12 03:14:38;;;;;;;23.42;12.68;;;15.20;99.90;;;;;;5124559;29;20055;-70
2023/06/12 03:17:09;;;;;;;15.10;11.95;;;15.10;99.90;;;;;;5124179;28;20538;-70
2023/06/12 03:19:40;;;;;;;17.77;12.13;;;15.30;99.90;;;;;;5124647;28;20106;-70
2023/06/12 03:22:11;;;;;;;21.20;12.50;;;15.30;99.90;;;;;;5123272;29;20398;-71
2023/06/12 03:24:43;;;;;;;14.48;12.45;;;15.40;99.90;;;;;;5123638;28;20030;-70
2023/06/12 03:27:14;;;;;;;17.95;12.63;;;15.40;99.90;;;;;;5128062;29;20038;-71
2023/06/12 03:29:45;;;;;;;14.10;11.98;;;15.50;99.90;;;;;;5127894;28;20035;-70
2023/06/12 03:32:16;;;;;;;15.65;11.88;;;15.60;99.90;;;;;;5127461;28;20031;-70
2023/06/12 03:34:47;;;;;;;14.30;12.70;;;15.70;99.90;;;;;;5123877;29;20020;-71
2023/06/12 03:37:19;;;;;;;14.63;12.45;;;15.90;99.90;;;;;;5107226;29;20024;-70
2023/06/12 03:39:50;;;;;;;15.65;13.27;;;15.90;99.90;;;;;;5107199;29;20082;-70
2023/06/12 03:42:21;;;;;;;16.02;14.13;;;16.00;99.90;;;;;;5106894;29;20051;-70
2023/06/12 03:44:52;;;;;;;17.13;14.70;;;15.80;99.90;;;;;;5107576;29;20037;-70
2023/06/12 03:47:23;;;;;;;18.67;14.68;;;15.70;99.90;;;;;;5107437;29;20142;-70
2023/06/12 03:49:55;;;;;;;20.02;15.18;;;15.60;99.90;;;;;;5107539;29;20032;-72
2023/06/12 03:52:27;;;;;;;15.30;13.80;;;16.00;99.90;;;;;;5122593;29;20036;-70
2023/06/12 03:54:58;;;;;;;15.20;13.70;;;16.20;99.90;;;;;;5107520;29;20020;-70
2023/06/12 03:57:29;;;;;;;14.48;12.18;;;16.10;99.90;;;;;;5107631;29;20032;-71
2023/06/12 04:00:00;;;;;;;14.55;12.95;;;16.20;99.90;;;;;;5107680;29;20472;-70
2023/06/12 04:02:31;;;;;;;13.80;12.65;;;16.40;99.90;;;;;;5107715;29;20087;-70
2023/06/12 04:05:02;;;;;;;12.23;11.18;;;16.40;99.90;;;;;;5107455;29;20034;-72
2023/06/12 04:07:36;;;;;;;12.57;11.43;;;16.50;99.90;;;;;;5107578;29;20480;-71
2023/06/12 04:10:10;;;;;;;13.07;11.82;;;16.60;99.90;;;;;;5107281;29;20039;-71
2023/06/12 04:12:41;;;;;;;13.63;12.43;;;16.80;99.90;;;;;;5107633;29;20031;-70
2023/06/12 04:17:52;;;;;;;14.85;13.48;;;16.90;99.90;;;;;;5453284;23;20114;-70
2023/06/12 04:20:23;;;;;;;14.55;13.25;;;16.90;99.90;;;;;;5127158;28;20027;-69
2023/06/12 04:22:56;;;;;;;13.85;12.65;;;17.10;99.90;;;;;;5127046;28;20086;-70
2023/06/12 04:25:27;;;;;;;14.20;13.00;;;16.90;99.90;;;;;;5126970;28;20012;-70
2023/06/12 04:27:58;;;;;;;14.27;12.98;;;17.30;99.90;;;;;;5126971;28;20031;-70
2023/06/12 04:30:33;;;;;;;13.93;12.68;;;17.40;99.90;;;;;;5126753;28;20058;-70
2023/06/12 04:33:04;;;;;;;16.10;12.10;;;17.50;99.90;;;;;;5126858;28;20027;-70
2023/06/12 04:35:35;;;;;;;12.38;11.38;;;17.60;99.90;;;;;;5126250;28;20075;-70
2023/06/12 04:38:06;;;;;;;11.55;10.65;;;17.70;99.90;;;;;;5126857;28;20419;-70
2023/06/12 04:40:37;;;;;;;12.13;10.95;;;17.80;99.90;;;;;;5125406;29;20022;-70
2023/06/12 04:43:09;;;;;;;12.45;11.35;;;17.90;99.90;;;;;;5126678;28;20027;-70
2023/06/12 04:45:44;;;;;;;12.07;11.02;;;18.10;99.90;;;;;;5126335;28;20050;-69
2023/06/12 04:48:15;;;;;;;11.50;10.52;;;18.00;99.90;;;;;;5126417;28;20476;-70
2023/06/12 04:50:50;;;;;;;11.98;11.05;;;18.20;99.90;;;;;;5126219;29;20071;-69
2023/06/12 04:53:27;;;;;;;9.63;8.77;;;18.40;99.90;;;;;;5126421;29;20031;-69
2023/06/12 04:56:00;;;;;;;9.90;9.07;;;18.40;99.90;;;;;;5126264;29;20023;-69
2023/06/12 04:58:32;;;;;;;10.98;9.98;;;18.40;99.90;;;;;;5141110;28;20114;-69
2023/06/12 05:01:02;;;;;;;11.88;10.77;;;18.70;99.90;;;;;;5126289;29;20036;-69
2023/06/12 05:03:33;;;;;;;11.13;10.15;;;18.90;99.90;;;;;;5126162;29;20031;-69
2023/06/12 05:06:05;;;;;;;13.27;11.88;;;19.00;99.90;;;;;;5125949;28;20106;-70
2023/06/12 05:08:37;;;;;;;15.75;10.85;;;19.20;99.90;;;;;;5126003;29;20513;-70
2023/06/12 05:11:07;;;;;;;13.52;10.93;;;19.30;99.90;;;;;;5125880;29;20038;-70
2023/06/12 05:13:39;;;;;;;11.23;9.02;;;19.60;99.90;;;;;;5125974;29;20031;-70
2023/06/12 05:16:09;;;;;;;8.50;7.65;;;19.70;99.90;;;;;;5124396;28;20110;-71
2023/06/12 05:18:40;;;;;;;7.78;6.88;;;19.90;99.90;;;;;;5125986;29;20146;-70
2023/06/12 05:21:13;;;;;;;7.78;6.70;;;20.00;99.90;;;;;;5125771;29;20031;-70
2023/06/12 05:23:44;;;;;;;9.88;7.78;;;20.20;99.90;;;;;;5125702;29;20027;-70
2023/06/12 05:26:15;;;;;;;8.65;7.85;;;20.40;99.90;;;;;;5125937;29;20396;-70
2023/06/12 05:28:46;;;;;;;8.25;7.45;;;20.10;99.90;;;;;;5126055;29;20449;-69
2023/06/12 05:31:17;;;;;;;9.38;7.90;;;20.00;99.90;;;;;;5125733;29;20043;-70
2023/06/12 05:33:48;;;;;;;11.35;8.07;;;20.20;99.90;;;;;;5125719;29;20027;-70
2023/06/12 05:36:19;;;;;;;8.18;7.38;;;20.40;99.90;;;;;;5125955;29;20566;-70
2023/06/12 05:38:50;;;;;;;9.38;8.45;;;20.50;99.90;;;;;;5125593;29;20349;-70
2023/06/12 05:41:21;;;;;;;10.65;7.63;;;20.40;99.90;;;;;;5125559;29;20042;-71
2023/06/12 05:43:52;;;;;;;9.43;8.40;;;20.40;99.90;;;;;;5125623;29;20464;-69
2023/06/12 05:46:23;;;;;;;8.43;7.47;;;20.60;99.90;;;;;;5125506;28;20077;-70
2023/06/12 05:48:57;;;;;;;9.98;8.52;;;20.70;99.90;;;;;;5124671;28;20436;-70
2023/06/12 05:51:27;;;;;;;10.82;7.85;;;21.00;99.90;;;;;;5125374;29;20035;-70
2023/06/12 05:53:58;;;;;;;10.98;7.45;;;21.10;99.90;;;;;;5125408;29;20066;-70
2023/06/12 05:56:30;;;;;;;9.85;8.70;;;21.00;99.90;;;;;;5125334;29;20067;-71
2023/06/12 05:59:00;;;;;;;10.80;8.43;;;21.30;99.90;;;;;;5125341;29;20106;-71
2023/06/12 06:01:31;;;;;;;13.00;8.70;;;21.20;99.90;;;;;;5140144;28;20122;-70
2023/06/12 06:04:02;;;;;;;9.57;7.88;;;21.10;99.90;;;;;;5125084;29;20015;-71
2023/06/12 06:06:33;;;;;;;10.63;8.30;;;21.00;99.90;;;;;;5123892;29;20542;-70
2023/06/12 06:09:06;;;;;;;9.82;8.32;;;20.80;99.90;;;;;;5125091;29;20031;-71
2023/06/12 06:11:37;;;;;;;8.70;7.80;;;20.70;99.90;;;;;;5125175;28;20078;-70
2023/06/12 06:14:07;;;;;;;11.30;8.32;;;20.60;99.90;;;;;;5125037;29;20019;-70
2023/06/12 06:16:38;;;;;;;10.82;8.32;;;20.40;99.90;;;;;;5124774;28;20058;-70
2023/06/12 06:19:10;;;;;;;14.32;9.30;;;20.30;99.90;;;;;;5125039;29;20038;-68
2023/06/12 06:21:41;;;;;;;10.90;8.30;;;20.00;99.90;;;;;;5124986;29;20114;-70
2023/06/12 06:24:12;;;;;;;18.08;11.05;;;19.90;99.90;;;;;;5124982;29;20595;-68
2023/06/12 06:26:43;;;;;;;15.15;10.50;;;19.80;99.90;;;;;;5124877;29;20492;-68
2023/06/12 06:29:13;;;;;;;17.77;13.48;;;19.80;99.90;;;;;;5123616;29;20027;-68
2023/06/12 06:31:44;;;;;;;17.15;11.88;;;19.90;99.90;;;;;;5124839;29;20031;-68
2023/06/12 06:34:15;;;;;;;18.05;12.95;;;20.00;99.90;;;;;;5124876;29;20031;-69
2023/06/12 06:36:46;;;;;;;15.32;12.40;;;20.10;99.90;;;;;;5124827;29;20067;-68
2023/06/12 06:39:17;;;;;;;17.23;13.57;;;20.10;99.90;;;;;;5124802;29;20031;-70
2023/06/12 06:41:48;;;;;;;17.90;13.48;;;20.50;99.90;;;;;;5124857;28;20098;-69
2023/06/12 06:44:18;;;;;;;13.88;12.05;;;20.80;99.90;;;;;;5123972;29;20035;-70
2023/06/12 06:46:49;;;;;;;12.32;10.70;;;20.80;99.90;;;;;;5124903;28;20089;-70
2023/06/12 06:49:22;;;;;;;10.93;9.35;;;21.00;99.90;;;;;;5123518;29;20379;-72
2023/06/12 06:51:53;;;;;;;13.50;8.98;;;21.10;99.90;;;;;;5124905;29;20023;-71
2023/06/12 06:54:23;;;;;;;13.73;10.68;;;21.10;99.90;;;;;;5124833;29;20360;-70
2023/06/12 06:56:54;;;;;;;13.52;9.38;;;21.20;99.90;;;;;;5124833;29;20027;-69
2023/06/12 06:59:25;;;;;;;10.55;8.57;;;21.10;99.90;;;;;;5126288;28;20031;-71
2023/06/12 07:01:56;;;;;;;10.30;8.48;;;21.30;99.90;;;;;;5128570;29;20090;-70
2023/06/12 07:04:28;;;;;;;9.70;8.75;;;21.60;99.90;;;;;;5127253;29;20102;-70
2023/06/12 07:06:59;;;;;;;13.05;9.90;;;21.50;99.90;;;;;;5128449;29;20478;-71
2023/06/12 07:09:29;;;;;;;11.68;8.60;;;21.30;99.90;;;;;;5128296;29;20023;-70
2023/06/12 07:12:01;;;;;;;11.18;10.05;;;21.20;99.90;;;;;;5128272;28;20035;-69
2023/06/12 07:14:31;;;;;;;15.48;10.88;;;21.30;99.90;;;;;;5128335;29;20456;-70
2023/06/12 07:17:03;;;;;;;11.77;10.18;;;21.10;99.90;;;;;;5142769;28;20063;-69
2023/06/12 07:19:33;;;;;;;13.52;10.65;;;21.00;99.90;;;;;;5128225;29;20110;-70
2023/06/12 07:22:04;;;;;;;12.80;10.80;;;21.00;99.90;;;;;;5128121;28;20098;-70
2023/06/12 07:24:35;;;;;;;11.88;10.68;;;21.00;99.90;;;;;;5142852;28;20042;-69
2023/06/12 07:27:06;;;;;;;16.15;10.57;;;20.90;99.90;;;;;;5128027;29;20019;-69
2023/06/12 07:29:37;;;;;;;13.82;10.27;;;20.90;99.90;;;;;;5127869;29;20039;-70
2023/06/12 07:32:09;;;;;;;13.52;10.55;;;21.00;99.90;;;;;;5127974;29;20022;-71
2023/06/12 07:34:40;;;;;;;13.88;11.57;;;21.10;99.90;;;;;;5127976;29;20118;-70
2023/06/12 07:37:12;;;;;;;15.85;11.48;;;21.30;99.90;;;;;;5128010;29;20081;-69
2023/06/12 07:39:43;;;;;;;14.40;11.07;;;21.80;99.90;;;;;;5127776;29;20050;-70
2023/06/12 07:42:14;;;;;;;14.98;10.40;;;22.00;99.90;;;;;;5127613;29;20019;-68
2023/06/12 07:44:45;;;;;;;11.02;8.80;;;22.00;99.90;;;;;;5127595;28;20071;-68
2023/06/12 07:47:16;;;;;;;14.45;9.82;;;22.00;99.90;;;;;;5127494;28;20115;-69
2023/06/12 07:49:47;;;;;;;13.80;9.30;;;21.90;99.90;;;;;;5127448;29;20480;-69
2023/06/12 07:52:17;;;;;;;12.18;9.02;;;22.20;99.90;;;;;;5126206;29;20050;-71
2023/06/12 07:54:50;;;;;;;12.70;9.95;;;22.40;99.90;;;;;;5127468;29;20019;-69
2023/06/12 07:57:20;;;;;;;11.15;8.82;;;22.60;99.90;;;;;;5127517;28;20373;-70
2023/06/12 07:59:51;;;;;;;10.68;9.02;;;22.60;99.90;;;;;;5127645;29;20038;-69
2023/06/12 08:02:28;;;;;;;13.55;9.48;;;22.50;99.90;;;;;;5127639;29;20028;-69
2023/06/12 08:05:00;;;;;;;13.63;8.27;;;22.20;99.90;;;;;;5127212;28;20480;-69
2023/06/12 08:07:32;;;;;;;12.73;10.23;;;22.10;99.90;;;;;;5127464;28;20023;-69
2023/06/12 08:10:04;;;;;;;10.60;9.50;;;22.00;99.90;;;;;;5126895;28;20031;-69
2023/06/12 08:12:35;;;;;;;12.43;10.13;;;22.00;99.90;;;;;;5125726;29;20027;-70
2023/06/12 08:15:07;;;;;;;13.35;10.10;;;21.80;99.90;;;;;;5127215;29;20034;-69
2023/06/12 08:17:41;;;;;;;16.40;10.15;;;21.70;99.90;;;;;;5126799;28;20052;-69
2023/06/12 08:20:13;;;;;;;12.50;9.68;;;21.40;99.90;;;;;;5127111;28;20031;-70
2023/06/12 08:22:44;;;;;;;14.57;10.52;;;21.20;99.90;;;;;;5127092;29;20035;-71
2023/06/12 08:25:15;;;;;;;17.83;10.48;;;21.10;99.90;;;;;;5126880;29;20038;-70
2023/06/12 08:27:46;;;;;;;13.38;11.68;;;20.90;99.90;;;;;;5126951;29;20024;-69
2023/06/12 08:30:17;;;;;;;13.60;11.48;;;20.90;99.90;;;;;;5126840;29;20035;-72
2023/06/12 08:32:48;;;;;;;15.25;10.65;;;21.10;99.90;;;;;;5125710;29;20468;-70
2023/06/12 08:35:19;;;;;;;12.13;10.80;;;21.20;99.90;;;;;;5126747;29;20018;-70
2023/06/12 08:37:50;;;;;;;15.02;11.25;;;21.20;99.90;;;;;;5126811;29;20035;-70
2023/06/12 08:40:20;;;;;;;13.18;9.95;;;21.20;99.90;;;;;;5126728;29;20031;-70
2023/06/12 08:42:52;;;;;;;12.38;10.65;;;21.20;99.90;;;;;;5126612;28;20031;-69
2023/06/12 08:45:26;;;;;;;19.50;10.80;;;21.30;99.90;;;;;;5126571;28;20478;-70
2023/06/12 08:47:57;;;;;;;16.13;9.82;;;21.40;99.90;;;;;;5126524;28;20039;-69
2023/06/12 08:50:28;;;;;;;15.38;9.82;;;21.50;99.90;;;;;;5126447;29;20510;-70
2023/06/12 08:53:00;;;;;;;14.40;10.70;;;21.40;99.90;;;;;;5125183;29;20059;-68
2023/06/12 08:55:39;;;;;;;14.68;11.00;;;21.40;99.90;;;;;;5126352;29;20098;-69
2023/06/12 08:58:10;;;;;;;22.25;10.90;;;21.50;99.90;;;;;;5126431;29;20027;-69
2023/06/12 09:00:41;;;;;;;14.63;11.70;;;21.30;99.90;;;;;;5126223;28;20038;-70
2023/06/12 09:03:12;;;;;;;14.02;11.35;;;21.30;99.90;;;;;;5126169;29;20027;-69
2023/06/12 09:05:45;;;;;;;16.48;11.20;;;21.40;99.90;;;;;;5126108;28;20114;-71
2023/06/12 09:08:16;;;;;;;12.48;10.82;;;21.40;99.90;;;;;;5126091;29;20055;-70
2023/06/12 09:10:48;;;;;;;14.63;11.45;;;21.50;99.90;;;;;;5126188;29;20047;-71
2023/06/12 09:13:19;;;;;;;13.93;11.77;;;21.40;99.90;;;;;;5126194;29;20109;-71
2023/06/12 09:15:52;;;;;;;21.48;13.43;;;21.40;99.90;;;;;;5124599;28;20507;-71
2023/06/12 09:18:23;;;;;;;15.23;12.70;;;21.20;99.90;;;;;;5124613;29;20126;-69
2023/06/12 09:20:54;;;;;;;14.10;12.07;;;21.30;99.90;;;;;;5125992;29;20037;-70
2023/06/12 09:23:25;;;;;;;26.75;12.98;;;21.30;99.90;;;;;;5126043;28;20102;-70
2023/06/12 09:25:57;;;;;;;17.60;12.90;;;21.50;99.90;;;;;;5125986;28;20042;-69
2023/06/12 09:28:30;;;;;;;15.10;12.65;;;21.50;99.90;;;;;;5125923;29;20082;-68
2023/06/12 09:31:01;;;;;;;18.35;13.75;;;21.60;99.90;;;;;;5125638;29;20400;-71
2023/06/12 09:33:32;;;;;;;15.15;13.32;;;21.90;99.90;;;;;;5125654;29;20379;-70
2023/06/12 09:36:03;;;;;;;13.98;11.55;;;22.20;99.90;;;;;;5125719;28;20027;-69
2023/06/12 09:38:35;;;;;;;14.95;11.68;;;22.10;99.90;;;;;;5125642;29;20041;-68
2023/06/12 09:41:08;;;;;;;16.02;12.13;;;22.20;99.90;;;;;;5124267;29;20468;-70
2023/06/12 09:43:39;;;;;;;17.42;13.63;;;22.10;99.90;;;;;;5125489;28;20019;-70
2023/06/12 09:46:10;;;;;;;21.55;12.55;;;22.80;99.90;;;;;;5125423;28;20031;-69
2023/06/12 09:48:41;;;;;;;17.52;10.55;;;23.30;99.90;;;;;;5125506;29;20031;-69
2023/06/12 09:51:13;;;;;;;14.38;10.20;;;23.50;99.90;;;;;;5125752;29;20019;-69
2023/06/12 09:53:45;;;;;;;16.45;9.32;;;23.50;99.90;;;;;;5124123;29;20479;-69
2023/06/12 09:56:17;;;;;;;17.40;10.07;;;23.20;99.90;;;;;;5125298;29;20498;-69
2023/06/12 09:58:50;;;;;;;16.88;9.75;;;22.80;99.90;;;;;;5125330;29;20098;-69
2023/06/12 10:01:25;;;;;;;14.00;9.63;;;22.60;99.90;;;;;;5125169;29;20384;-69
2023/06/12 10:03:59;;;;;;;15.75;9.25;;;22.80;99.90;;;;;;5125132;28;20063;-69
2023/06/12 10:06:33;;;;;;;16.55;8.15;;;23.10;99.90;;;;;;5125153;28;20030;-69
2023/06/12 10:09:06;;;;;;;12.63;7.97;;;23.00;99.90;;;;;;5124985;29;20027;-69
2023/06/12 10:11:38;;;;;;;12.10;7.30;;;23.00;99.90;;;;;;5125075;29;20475;-69
2023/06/12 10:14:09;;;;;;;12.23;8.13;;;23.20;99.90;;;;;;5125015;28;20031;-68
2023/06/12 10:16:42;;;;;;;16.30;7.90;;;23.40;99.90;;;;;;5124753;28;20042;-69
2023/06/12 10:19:13;;;;;;;10.30;8.02;;;23.50;99.90;;;;;;5125075;29;20115;-69
2023/06/12 10:21:45;;;;;;;14.20;7.43;;;23.70;99.90;;;;;;5125413;29;20055;-69
2023/06/12 10:24:16;;;;;;;10.18;7.30;;;23.80;99.90;;;;;;5125088;29;20032;-68
2023/06/12 10:26:49;;;;;;;15.52;9.15;;;23.50;99.90;;;;;;5123852;29;20042;-71
2023/06/12 10:29:31;;;;;;;16.98;8.77;;;23.80;99.90;;;;;;5124822;29;20042;-69
2023/06/12 10:32:14;;;;;;;11.77;8.10;;;23.50;99.90;;;;;;5125301;29;20031;-69
2023/06/12 10:34:45;;;;;;;14.07;8.60;;;23.40;99.90;;;;;;5127463;28;20083;-69
2023/06/12 10:37:31;;;;;;;13.13;9.43;;;23.30;99.90;;;;;;5129274;29;20039;-70
2023/06/12 10:40:13;;;;;;;14.82;7.82;;;23.30;99.90;;;;;;5129071;29;20046;-69
2023/06/12 10:42:51;;;;;;;11.73;7.28;;;23.40;99.90;;;;;;5128922;29;20027;-69
2023/06/12 10:45:24;;;;;;;11.00;7.15;;;23.50;99.90;;;;;;5128759;28;20055;-69
2023/06/12 10:48:04;;;;;;;12.93;7.60;;;23.60;99.90;;;;;;5128990;29;20035;-69
2023/06/12 10:50:47;;;;;;;11.10;6.95;;;23.50;99.90;;;;;;5128677;29;20464;-69
2023/06/12 10:53:24;;;;;;;12.55;7.72;;;23.80;99.90;;;;;;5128734;28;20031;-69
2023/06/12 10:56:05;;;;;;;17.23;9.10;;;24.00;99.90;;;;;;5128679;29;20106;-69
2023/06/12 10:58:38;;;;;;;15.38;9.07;;;23.70;99.90;;;;;;5143654;28;20027;-69
2023/06/12 11:01:13;;;;;;;12.15;9.30;;;23.30;99.90;;;;;;5128795;28;20493;-73
2023/06/12 11:03:44;;;;;;;12.32;8.25;;;23.30;99.90;;;;;;5128446;28;20015;-69
2023/06/12 11:06:15;;;;;;;14.07;8.90;;;23.50;99.90;;;;;;5128537;28;20031;-69
2023/06/12 11:08:47;;;;;;;11.63;8.20;;;23.60;99.90;;;;;;5128481;29;20376;-69
2023/06/12 11:11:18;;;;;;;12.02;8.02;;;23.90;99.90;;;;;;5126954;29;20443;-69
2023/06/12 11:13:48;;;;;;;12.20;9.27;;;23.50;99.90;;;;;;5128336;28;20031;-69
2023/06/12 11:16:21;;;;;;;10.00;8.00;;;23.70;99.90;;;;;;5127858;28;20027;-69
2023/06/12 11:19:07;;;;;;;15.13;9.55;;;23.40;99.90;;;;;;5128279;29;20035;-69
2023/06/12 11:21:39;;;;;;;14.18;9.10;;;23.40;99.90;;;;;;5128183;29;20046;-69
2023/06/12 11:24:13;;;;;;;16.63;10.20;;;23.30;99.90;;;;;;5128093;28;20034;-69
2023/06/12 11:26:44;;;;;;;15.05;7.53;;;24.10;99.90;;;;;;5127978;29;20030;-69
2023/06/12 11:29:15;;;;;;;8.77;7.03;;;23.90;99.90;;;;;;5142697;28;20039;-70
2023/06/12 11:31:49;;;;;;;11.38;7.70;;;24.30;99.90;;;;;;5127964;29;20093;-69
2023/06/12 11:34:20;;;;;;;10.05;7.25;;;24.20;99.90;;;;;;5127752;28;20027;-69
2023/06/12 11:36:51;;;;;;;13.68;8.88;;;23.40;99.90;;;;;;5127826;29;20501;-69
2023/06/12 11:39:22;;;;;;;18.75;8.38;;;23.70;99.90;;;;;;5142650;28;20050;-69
2023/06/12 11:41:54;;;;;;;7.68;6.93;;;23.60;99.90;;;;;;5127874;28;20498;-69
2023/06/12 11:44:24;;;;;;;10.75;7.10;;;23.80;99.90;;;;;;5127755;28;20024;-69
2023/06/12 11:46:58;;;;;;;10.40;7.55;;;24.10;99.90;;;;;;5141294;28;20031;-69
2023/06/12 11:49:31;;;;;;;11.93;7.93;;;24.50;99.90;;;;;;5127719;29;20067;-69
2023/06/12 11:52:02;;;;;;;11.50;7.93;;;23.90;99.90;;;;;;5128079;28;20027;-69
2023/06/12 11:55:21;;;;;;;12.55;8.15;;;23.80;99.90;;;;;;5142485;28;20420;-69
2023/06/12 11:57:52;;;;;;;12.88;6.57;;;23.70;99.90;;;;;;5126676;28;20067;-69
2023/06/12 12:00:25;;;;;;;7.80;6.97;;;23.30;99.90;;;;;;5127534;29;20055;-69
2023/06/12 12:03:01;;;;;;;8.95;7.57;;;23.80;99.90;;;;;;5127433;28;20034;-69
2023/06/12 12:05:37;;;;;;;10.52;7.22;;;23.50;99.90;;;;;;5127457;28;20023;-69
2023/06/12 12:08:08;;;;;;;16.48;7.13;;;23.20;99.90;;;;;;5127384;28;20036;-68
2023/06/12 12:10:40;;;;;;;10.23;7.00;;;23.10;99.90;;;;;;5127152;29;20039;-69
2023/06/12 12:13:12;;;;;;;12.43;7.10;;;22.80;99.90;;;;;;5125905;29;20066;-69
2023/06/12 12:15:42;;;;;;;12.18;7.43;;;22.70;99.90;;;;;;5127001;28;20535;-69
2023/06/12 12:18:15;;;;;;;10.75;7.55;;;23.00;99.90;;;;;;5126854;29;20160;-69
2023/06/12 12:20:49;;;;;;;12.32;6.97;;;23.10;99.90;;;;;;5127154;29;20028;-69
2023/06/12 12:23:24;;;;;;;9.63;7.28;;;23.30;99.90;;;;;;5126927;28;20035;-69
2023/06/12 12:25:57;;;;;;;13.02;7.00;;;23.20;99.90;;;;;;5127062;29;20027;-69
2023/06/12 12:28:28;;;;;;;7.80;6.93;;;23.30;99.90;;;;;;5126948;28;20023;-69
2023/06/12 12:30:59;;;;;;;11.52;7.18;;;23.70;99.90;;;;;;5126764;29;20039;-69
2023/06/12 12:33:30;;;;;;;8.75;7.45;;;23.40;99.90;;;;;;5141500;28;20132;-69
2023/06/12 12:36:02;;;;;;;11.13;6.97;;;23.00;99.90;;;;;;5126738;29;20034;-69
2023/06/12 12:38:33;;;;;;;8.90;7.38;;;23.00;99.90;;;;;;5126737;28;20027;-70
2023/06/12 12:41:04;;;;;;;10.90;7.43;;;22.90;99.90;;;;;;5126680;29;20030;-69
2023/06/12 12:43:34;;;;;;;10.45;7.10;;;22.60;99.90;;;;;;5126597;29;20542;-69
2023/06/12 12:46:05;;;;;;;12.68;7.80;;;22.90;99.90;;;;;;5126435;28;20030;-69
2023/06/12 12:48:38;;;;;;;13.63;7.47;;;22.70;99.90;;;;;;5126449;29;20498;-69
2023/06/12 12:51:09;;;;;;;12.52;8.30;;;22.60;99.90;;;;;;5125064;29;20047;-69
2023/06/12 12:53:40;;;;;;;13.18;7.57;;;22.30;99.90;;;;;;5126424;29;20027;-69
2023/06/12 12:56:13;;;;;;;18.10;8.65;;;22.40;99.90;;;;;;5126448;28;20031;-69
2023/06/12 12:58:43;;;;;;;16.08;7.75;;;22.40;99.90;;;;;;5125007;29;20034;-69
2023/06/12 13:01:14;;;;;;;16.45;7.88;;;22.40;99.90;;;;;;5141211;28;20023;-69
2023/06/12 13:03:45;;;;;;;11.38;7.32;;;22.40;99.90;;;;;;5126360;29;20059;-69